sensor_id;sensor_type;location;lat;lon;timestamp;temperature;humidity
37910;DHT22;23741;49.446;8.754;2022-09-02T00:00:20;21.20;54.70
37910;DHT22;23741;49.446;8.754;2022-09-02T00:02:21;21.20;54.50
37910;DHT22;23741;49.446;8.754;2022-09-02T00:04:24;21.30;54.60
37910;DHT22;23741;49.446;8.754;2022-09-02T00:06:27;21.30;54.50
37910;DHT22;23741;49.446;8.754;2022-09-02T00:08:29;21.30;54.60
37910;DHT22;23741;49.446;8.754;2022-09-02T00:10:35;21.30;54.60
37910;DHT22;23741;49.446;8.754;2022-09-02T00:12:37;21.30;54.40
37910;DHT22;23741;49.446;8.754;2022-09-02T00:14:39;21.20;54.20
37910;DHT22;23741;49.446;8.754;2022-09-02T00:16:41;21.20;54.30
37910;DHT22;23741;49.446;8.754;2022-09-02T00:18:52;21.30;54.40
37910;DHT22;23741;49.446;8.754;2022-09-02T00:20:54;21.20;54.20
37910;DHT22;23741;49.446;8.754;2022-09-02T00:22:56;21.30;54.20
37910;DHT22;23741;49.446;8.754;2022-09-02T00:24:57;21.30;54.40
37910;DHT22;23741;49.446;8.754;2022-09-02T00:26:59;21.30;54.20
37910;DHT22;23741;49.446;8.754;2022-09-02T00:29:01;21.20;54.10
37910;DHT22;23741;49.446;8.754;2022-09-02T00:31:03;21.30;54.20
37910;DHT22;23741;49.446;8.754;2022-09-02T00:33:05;21.20;54.10
37910;DHT22;23741;49.446;8.754;2022-09-02T00:35:07;21.30;54.20
37910;DHT22;23741;49.446;8.754;2022-09-02T00:37:09;21.20;54.10
37910;DHT22;23741;49.446;8.754;2022-09-02T00:39:10;21.20;53.90
37910;DHT22;23741;49.446;8.754;2022-09-02T00:41:12;21.20;54.10
37910;DHT22;23741;49.446;8.754;2022-09-02T00:43:21;21.20;54.90
37910;DHT22;23741;49.446;8.754;2022-09-02T00:45:23;21.20;54.50
37910;DHT22;23741;49.446;8.754;2022-09-02T00:47:25;21.20;54.10
37910;DHT22;23741;49.446;8.754;2022-09-02T00:49:28;21.20;54.20
37910;DHT22;23741;49.446;8.754;2022-09-02T00:51:32;21.20;54.20
37910;DHT22;23741;49.446;8.754;2022-09-02T00:53:34;21.20;54.20
37910;DHT22;23741;49.446;8.754;2022-09-02T00:55:45;21.20;54.20
37910;DHT22;23741;49.446;8.754;2022-09-02T00:57:58;21.10;54.40
37910;DHT22;23741;49.446;8.754;2022-09-02T01:02:05;21.20;54.40
37910;DHT22;23741;49.446;8.754;2022-09-02T01:04:09;21.10;54.40
37910;DHT22;23741;49.446;8.754;2022-09-02T01:06:11;21.20;54.40
37910;DHT22;23741;49.446;8.754;2022-09-02T01:08:18;21.10;54.40
37910;DHT22;23741;49.446;8.754;2022-09-02T01:10:22;21.10;54.60
37910;DHT22;23741;49.446;8.754;2022-09-02T01:12:24;21.10;54.40
37910;DHT22;23741;49.446;8.754;2022-09-02T01:14:28;21.20;54.30
37910;DHT22;23741;49.446;8.754;2022-09-02T01:16:54;21.10;54.40
37910;DHT22;23741;49.446;8.754;2022-09-02T01:18:54;21.10;54.30
37910;DHT22;23741;49.446;8.754;2022-09-02T01:20:59;21.10;54.20
37910;DHT22;23741;49.446;8.754;2022-09-02T01:23:01;21.10;54.20
37910;DHT22;23741;49.446;8.754;2022-09-02T01:25:04;21.10;54.30
37910;DHT22;23741;49.446;8.754;2022-09-02T01:27:06;21.10;54.30
37910;DHT22;23741;49.446;8.754;2022-09-02T01:29:08;21.10;54.00
37910;DHT22;23741;49.446;8.754;2022-09-02T01:31:10;21.10;54.20
37910;DHT22;23741;49.446;8.754;2022-09-02T01:33:13;21.10;54.10
37910;DHT22;23741;49.446;8.754;2022-09-02T01:35:16;21.10;54.10
37910;DHT22;23741;49.446;8.754;2022-09-02T01:37:18;21.10;54.10
37910;DHT22;23741;49.446;8.754;2022-09-02T01:39:20;21.10;54.20
37910;DHT22;23741;49.446;8.754;2022-09-02T01:41:22;21.10;54.10
37910;DHT22;23741;49.446;8.754;2022-09-02T01:43:24;21.10;54.20
37910;DHT22;23741;49.446;8.754;2022-09-02T01:45:27;21.10;54.10
37910;DHT22;23741;49.446;8.754;2022-09-02T01:47:29;21.10;54.20
37910;DHT22;23741;49.446;8.754;2022-09-02T01:49:32;21.00;54.30
37910;DHT22;23741;49.446;8.754;2022-09-02T01:51:36;21.10;54.20
37910;DHT22;23741;49.446;8.754;2022-09-02T01:53:38;21.00;54.10
37910;DHT22;23741;49.446;8.754;2022-09-02T01:55:40;21.00;54.10
37910;DHT22;23741;49.446;8.754;2022-09-02T01:57:42;21.00;54.10
37910;DHT22;23741;49.446;8.754;2022-09-02T01:59:46;21.00;54.20
37910;DHT22;23741;49.446;8.754;2022-09-02T02:01:50;21.00;54.50
37910;DHT22;23741;49.446;8.754;2022-09-02T02:03:53;21.00;54.30
37910;DHT22;23741;49.446;8.754;2022-09-02T02:05:58;21.00;54.50
37910;DHT22;23741;49.446;8.754;2022-09-02T02:08:00;21.00;54.30
37910;DHT22;23741;49.446;8.754;2022-09-02T02:10:04;21.00;54.50
37910;DHT22;23741;49.446;8.754;2022-09-02T02:12:07;20.90;54.20
37910;DHT22;23741;49.446;8.754;2022-09-02T02:14:09;20.90;54.20
37910;DHT22;23741;49.446;8.754;2022-09-02T02:16:11;20.90;54.30
37910;DHT22;23741;49.446;8.754;2022-09-02T02:18:14;20.90;54.40
37910;DHT22;23741;49.446;8.754;2022-09-02T02:20:16;20.90;54.40
37910;DHT22;23741;49.446;8.754;2022-09-02T02:22:18;20.80;54.30
37910;DHT22;23741;49.446;8.754;2022-09-02T02:24:21;20.80;54.30
37910;DHT22;23741;49.446;8.754;2022-09-02T02:26:23;20.80;54.30
37910;DHT22;23741;49.446;8.754;2022-09-02T02:28:25;20.80;54.50
37910;DHT22;23741;49.446;8.754;2022-09-02T02:30:27;20.70;54.70
37910;DHT22;23741;49.446;8.754;2022-09-02T02:32:29;20.70;54.80
37910;DHT22;23741;49.446;8.754;2022-09-02T02:34:34;20.70;54.70
37910;DHT22;23741;49.446;8.754;2022-09-02T02:36:37;20.70;54.70
37910;DHT22;23741;49.446;8.754;2022-09-02T02:38:39;20.70;54.60
37910;DHT22;23741;49.446;8.754;2022-09-02T02:40:41;20.60;54.50
37910;DHT22;23741;49.446;8.754;2022-09-02T02:42:47;20.60;54.50
37910;DHT22;23741;49.446;8.754;2022-09-02T02:44:48;20.60;54.50
37910;DHT22;23741;49.446;8.754;2022-09-02T02:46:51;20.60;54.50
37910;DHT22;23741;49.446;8.754;2022-09-02T02:48:53;20.50;54.70
37910;DHT22;23741;49.446;8.754;2022-09-02T02:50:55;20.50;54.80
37910;DHT22;23741;49.446;8.754;2022-09-02T02:52:57;20.50;54.70
37910;DHT22;23741;49.446;8.754;2022-09-02T02:54:59;20.50;54.70
37910;DHT22;23741;49.446;8.754;2022-09-02T02:57:01;20.50;54.90
37910;DHT22;23741;49.446;8.754;2022-09-02T02:59:04;20.50;55.00
37910;DHT22;23741;49.446;8.754;2022-09-02T03:01:06;20.40;54.80
37910;DHT22;23741;49.446;8.754;2022-09-02T03:03:09;20.40;54.80
37910;DHT22;23741;49.446;8.754;2022-09-02T03:05:13;20.40;54.80
37910;DHT22;23741;49.446;8.754;2022-09-02T03:07:15;20.40;54.80
37910;DHT22;23741;49.446;8.754;2022-09-02T03:09:16;20.40;54.80
37910;DHT22;23741;49.446;8.754;2022-09-02T03:11:20;20.30;54.70
37910;DHT22;23741;49.446;8.754;2022-09-02T03:13:23;20.30;54.70
37910;DHT22;23741;49.446;8.754;2022-09-02T03:15:27;20.30;55.00
37910;DHT22;23741;49.446;8.754;2022-09-02T03:17:29;20.30;55.10
37910;DHT22;23741;49.446;8.754;2022-09-02T03:19:31;20.20;55.00
37910;DHT22;23741;49.446;8.754;2022-09-02T03:21:33;20.20;55.00
37910;DHT22;23741;49.446;8.754;2022-09-02T03:23:41;20.20;54.70
37910;DHT22;23741;49.446;8.754;2022-09-02T03:25:43;20.20;55.20
37910;DHT22;23741;49.446;8.754;2022-09-02T03:27:54;20.20;55.30
37910;DHT22;23741;49.446;8.754;2022-09-02T03:29:56;20.20;55.30
37910;DHT22;23741;49.446;8.754;2022-09-02T03:31:57;20.10;55.10
37910;DHT22;23741;49.446;8.754;2022-09-02T03:34:02;20.10;55.20
37910;DHT22;23741;49.446;8.754;2022-09-02T03:36:06;20.10;55.20
37910;DHT22;23741;49.446;8.754;2022-09-02T03:38:09;20.10;55.20
37910;DHT22;23741;49.446;8.754;2022-09-02T03:40:13;20.10;55.10
37910;DHT22;23741;49.446;8.754;2022-09-02T03:42:15;20.10;55.40
37910;DHT22;23741;49.446;8.754;2022-09-02T03:44:22;20.00;55.20
37910;DHT22;23741;49.446;8.754;2022-09-02T03:46:24;20.00;55.30
37910;DHT22;23741;49.446;8.754;2022-09-02T03:48:26;20.00;55.40
37910;DHT22;23741;49.446;8.754;2022-09-02T03:50:32;20.00;55.40
37910;DHT22;23741;49.446;8.754;2022-09-02T03:52:34;20.00;55.60
37910;DHT22;23741;49.446;8.754;2022-09-02T03:54:37;20.00;55.30
37910;DHT22;23741;49.446;8.754;2022-09-02T03:56:39;19.90;55.30
37910;DHT22;23741;49.446;8.754;2022-09-02T03:58:42;19.90;55.30
37910;DHT22;23741;49.446;8.754;2022-09-02T04:00:48;20.00;55.40
37910;DHT22;23741;49.446;8.754;2022-09-02T04:02:50;19.90;55.60
37910;DHT22;23741;49.446;8.754;2022-09-02T04:04:54;19.90;55.40
37910;DHT22;23741;49.446;8.754;2022-09-02T04:06:56;19.90;55.30
37910;DHT22;23741;49.446;8.754;2022-09-02T04:09:00;19.90;55.50
37910;DHT22;23741;49.446;8.754;2022-09-02T04:11:07;19.90;55.30
37910;DHT22;23741;49.446;8.754;2022-09-02T04:13:09;19.90;55.30
37910;DHT22;23741;49.446;8.754;2022-09-02T04:15:11;19.90;55.30
37910;DHT22;23741;49.446;8.754;2022-09-02T04:23:11;19.90;55.50
37910;DHT22;23741;49.446;8.754;2022-09-02T04:25:15;19.80;55.50
37910;DHT22;23741;49.446;8.754;2022-09-02T04:27:18;19.90;55.40
37910;DHT22;23741;49.446;8.754;2022-09-02T04:29:20;19.90;55.50
37910;DHT22;23741;49.446;8.754;2022-09-02T04:31:24;19.80;55.30
37910;DHT22;23741;49.446;8.754;2022-09-02T04:33:27;19.80;55.50
37910;DHT22;23741;49.446;8.754;2022-09-02T04:35:30;19.90;55.60
37910;DHT22;23741;49.446;8.754;2022-09-02T04:37:32;19.80;55.50
37910;DHT22;23741;49.446;8.754;2022-09-02T04:39:34;19.80;55.40
37910;DHT22;23741;49.446;8.754;2022-09-02T04:41:37;19.80;55.40
37910;DHT22;23741;49.446;8.754;2022-09-02T04:43:42;19.90;55.50
37910;DHT22;23741;49.446;8.754;2022-09-02T04:45:45;19.90;55.60
37910;DHT22;23741;49.446;8.754;2022-09-02T04:47:49;19.80;55.50
37910;DHT22;23741;49.446;8.754;2022-09-02T04:49:52;19.90;55.60
37910;DHT22;23741;49.446;8.754;2022-09-02T04:51:54;19.80;55.70
37910;DHT22;23741;49.446;8.754;2022-09-02T04:53:57;19.80;55.80
37910;DHT22;23741;49.446;8.754;2022-09-02T04:55:59;19.90;55.70
37910;DHT22;23741;49.446;8.754;2022-09-02T04:58:02;19.80;55.40
37910;DHT22;23741;49.446;8.754;2022-09-02T05:00:07;19.80;55.60
37910;DHT22;23741;49.446;8.754;2022-09-02T05:02:09;19.80;55.40
37910;DHT22;23741;49.446;8.754;2022-09-02T05:04:12;19.80;55.40
37910;DHT22;23741;49.446;8.754;2022-09-02T05:06:20;19.80;55.60
37910;DHT22;23741;49.446;8.754;2022-09-02T05:08:23;19.80;55.50
37910;DHT22;23741;49.446;8.754;2022-09-02T05:10:25;19.80;55.60
37910;DHT22;23741;49.446;8.754;2022-09-02T05:12:26;19.80;55.70
37910;DHT22;23741;49.446;8.754;2022-09-02T05:14:32;19.80;55.60
37910;DHT22;23741;49.446;8.754;2022-09-02T05:16:38;19.80;55.60
37910;DHT22;23741;49.446;8.754;2022-09-02T05:18:44;19.80;55.60
37910;DHT22;23741;49.446;8.754;2022-09-02T05:20:47;19.80;55.70
37910;DHT22;23741;49.446;8.754;2022-09-02T05:22:51;19.80;55.80
37910;DHT22;23741;49.446;8.754;2022-09-02T05:24:52;19.80;55.80
37910;DHT22;23741;49.446;8.754;2022-09-02T05:26:54;19.80;55.80
37910;DHT22;23741;49.446;8.754;2022-09-02T05:28:56;19.80;55.90
37910;DHT22;23741;49.446;8.754;2022-09-02T05:31:02;19.80;55.90
37910;DHT22;23741;49.446;8.754;2022-09-02T05:33:07;19.80;55.90
37910;DHT22;23741;49.446;8.754;2022-09-02T05:35:10;19.80;55.70
37910;DHT22;23741;49.446;8.754;2022-09-02T05:37:12;19.80;55.80
37910;DHT22;23741;49.446;8.754;2022-09-02T05:39:14;19.70;55.80
37910;DHT22;23741;49.446;8.754;2022-09-02T05:41:18;19.70;56.00
37910;DHT22;23741;49.446;8.754;2022-09-02T05:43:26;19.70;55.70
37910;DHT22;23741;49.446;8.754;2022-09-02T05:45:27;19.70;55.80
37910;DHT22;23741;49.446;8.754;2022-09-02T05:47:29;19.70;55.70
37910;DHT22;23741;49.446;8.754;2022-09-02T05:49:31;19.70;55.90
37910;DHT22;23741;49.446;8.754;2022-09-02T05:51:48;19.70;55.90
37910;DHT22;23741;49.446;8.754;2022-09-02T05:53:55;19.70;56.00
37910;DHT22;23741;49.446;8.754;2022-09-02T05:56:00;19.70;55.90
37910;DHT22;23741;49.446;8.754;2022-09-02T05:58:03;19.70;55.90
37910;DHT22;23741;49.446;8.754;2022-09-02T06:00:06;19.60;56.00
37910;DHT22;23741;49.446;8.754;2022-09-02T06:02:15;19.70;56.10
37910;DHT22;23741;49.446;8.754;2022-09-02T06:04:18;19.60;56.10
37910;DHT22;23741;49.446;8.754;2022-09-02T06:06:21;19.60;56.10
37910;DHT22;23741;49.446;8.754;2022-09-02T06:08:24;19.60;55.90
37910;DHT22;23741;49.446;8.754;2022-09-02T06:10:26;19.70;56.00
37910;DHT22;23741;49.446;8.754;2022-09-02T06:12:27;19.70;56.00
37910;DHT22;23741;49.446;8.754;2022-09-02T06:14:32;19.70;56.00
37910;DHT22;23741;49.446;8.754;2022-09-02T06:16:34;19.70;56.00
37910;DHT22;23741;49.446;8.754;2022-09-02T06:18:36;19.70;55.90
37910;DHT22;23741;49.446;8.754;2022-09-02T06:20:43;19.70;55.80
37910;DHT22;23741;49.446;8.754;2022-09-02T06:22:45;19.70;55.70
37910;DHT22;23741;49.446;8.754;2022-09-02T06:24:48;19.70;55.80
37910;DHT22;23741;49.446;8.754;2022-09-02T06:26:56;19.70;55.60
37910;DHT22;23741;49.446;8.754;2022-09-02T06:28:58;19.70;55.60
37910;DHT22;23741;49.446;8.754;2022-09-02T06:31:08;19.80;55.80
37910;DHT22;23741;49.446;8.754;2022-09-02T06:33:10;19.80;55.60
37910;DHT22;23741;49.446;8.754;2022-09-02T06:35:14;19.80;55.50
37910;DHT22;23741;49.446;8.754;2022-09-02T06:37:16;19.80;55.50
37910;DHT22;23741;49.446;8.754;2022-09-02T06:39:19;19.80;55.40
37910;DHT22;23741;49.446;8.754;2022-09-02T06:41:24;19.90;55.60
37910;DHT22;23741;49.446;8.754;2022-09-02T06:43:29;19.90;55.60
37910;DHT22;23741;49.446;8.754;2022-09-02T06:45:52;19.90;55.30
37910;DHT22;23741;49.446;8.754;2022-09-02T06:47:55;19.90;55.30
37910;DHT22;23741;49.446;8.754;2022-09-02T06:49:57;20.00;55.40
37910;DHT22;23741;49.446;8.754;2022-09-02T06:51:59;20.00;55.50
37910;DHT22;23741;49.446;8.754;2022-09-02T06:54:06;20.00;55.60
37910;DHT22;23741;49.446;8.754;2022-09-02T06:56:11;20.10;55.60
37910;DHT22;23741;49.446;8.754;2022-09-02T06:58:13;20.10;55.70
37910;DHT22;23741;49.446;8.754;2022-09-02T07:00:15;20.10;55.60
37910;DHT22;23741;49.446;8.754;2022-09-02T07:02:17;20.10;55.40
37910;DHT22;23741;49.446;8.754;2022-09-02T07:04:20;20.20;55.20
37910;DHT22;23741;49.446;8.754;2022-09-02T07:06:43;20.20;55.40
37910;DHT22;23741;49.446;8.754;2022-09-02T07:08:47;20.30;55.20
37910;DHT22;23741;49.446;8.754;2022-09-02T07:10:48;20.30;55.20
37910;DHT22;23741;49.446;8.754;2022-09-02T07:12:51;20.30;55.30
37910;DHT22;23741;49.446;8.754;2022-09-02T07:14:53;20.30;55.20
37910;DHT22;23741;49.446;8.754;2022-09-02T07:17:00;20.40;55.10
37910;DHT22;23741;49.446;8.754;2022-09-02T07:19:05;20.40;55.00
37910;DHT22;23741;49.446;8.754;2022-09-02T07:21:14;20.40;55.00
37910;DHT22;23741;49.446;8.754;2022-09-02T07:23:16;20.50;55.00
37910;DHT22;23741;49.446;8.754;2022-09-02T07:25:18;20.50;54.90
37910;DHT22;23741;49.446;8.754;2022-09-02T07:27:22;20.50;54.80
37910;DHT22;23741;49.446;8.754;2022-09-02T07:29:24;20.50;54.60
37910;DHT22;23741;49.446;8.754;2022-09-02T07:31:26;20.50;54.60
37910;DHT22;23741;49.446;8.754;2022-09-02T07:33:30;20.60;54.70
37910;DHT22;23741;49.446;8.754;2022-09-02T07:35:32;20.60;54.50
37910;DHT22;23741;49.446;8.754;2022-09-02T07:37:35;20.60;54.50
37910;DHT22;23741;49.446;8.754;2022-09-02T07:39:39;20.60;54.70
37910;DHT22;23741;49.446;8.754;2022-09-02T07:41:43;20.70;54.70
37910;DHT22;23741;49.446;8.754;2022-09-02T07:43:45;20.70;54.60
37910;DHT22;23741;49.446;8.754;2022-09-02T07:45:53;20.70;54.60
37910;DHT22;23741;49.446;8.754;2022-09-02T07:47:57;20.70;54.60
37910;DHT22;23741;49.446;8.754;2022-09-02T07:49:59;20.80;54.40
37910;DHT22;23741;49.446;8.754;2022-09-02T07:52:26;20.80;54.40
37910;DHT22;23741;49.446;8.754;2022-09-02T07:54:29;20.90;54.40
37910;DHT22;23741;49.446;8.754;2022-09-02T07:56:35;20.90;54.30
37910;DHT22;23741;49.446;8.754;2022-09-02T07:58:37;20.90;54.40
37910;DHT22;23741;49.446;8.754;2022-09-02T08:00:40;20.90;54.50
37910;DHT22;23741;49.446;8.754;2022-09-02T08:02:44;21.00;54.50
37910;DHT22;23741;49.446;8.754;2022-09-02T08:04:51;21.00;54.30
37910;DHT22;23741;49.446;8.754;2022-09-02T08:06:53;21.00;54.30
37910;DHT22;23741;49.446;8.754;2022-09-02T08:08:55;21.10;54.40
37910;DHT22;23741;49.446;8.754;2022-09-02T08:10:56;21.10;54.30
37910;DHT22;23741;49.446;8.754;2022-09-02T08:12:58;21.20;54.30
37910;DHT22;23741;49.446;8.754;2022-09-02T08:15:03;21.20;54.20
37910;DHT22;23741;49.446;8.754;2022-09-02T08:17:06;21.20;54.30
37910;DHT22;23741;49.446;8.754;2022-09-02T08:19:09;21.30;54.20
37910;DHT22;23741;49.446;8.754;2022-09-02T08:21:11;21.30;53.60
37910;DHT22;23741;49.446;8.754;2022-09-02T08:23:13;21.40;53.90
37910;DHT22;23741;49.446;8.754;2022-09-02T08:25:34;21.40;54.00
37910;DHT22;23741;49.446;8.754;2022-09-02T08:27:36;21.40;53.90
37910;DHT22;23741;49.446;8.754;2022-09-02T08:29:38;21.50;53.80
37910;DHT22;23741;49.446;8.754;2022-09-02T08:31:40;21.50;53.70
37910;DHT22;23741;49.446;8.754;2022-09-02T08:33:42;21.50;53.60
37910;DHT22;23741;49.446;8.754;2022-09-02T08:35:43;21.60;53.70
37910;DHT22;23741;49.446;8.754;2022-09-02T08:37:45;21.60;53.60
37910;DHT22;23741;49.446;8.754;2022-09-02T08:39:47;21.60;53.40
37910;DHT22;23741;49.446;8.754;2022-09-02T08:43:57;21.70;53.40
37910;DHT22;23741;49.446;8.754;2022-09-02T08:46:01;21.80;53.40
37910;DHT22;23741;49.446;8.754;2022-09-02T08:50:15;21.80;53.20
37910;DHT22;23741;49.446;8.754;2022-09-02T08:52:28;21.90;53.40
37910;DHT22;23741;49.446;8.754;2022-09-02T08:54:43;21.90;53.20
37910;DHT22;23741;49.446;8.754;2022-09-02T08:56:46;21.90;53.10
37910;DHT22;23741;49.446;8.754;2022-09-02T08:58:50;21.90;53.30
37910;DHT22;23741;49.446;8.754;2022-09-02T09:01:13;22.00;53.40
37910;DHT22;23741;49.446;8.754;2022-09-02T09:03:28;22.00;53.30
37910;DHT22;23741;49.446;8.754;2022-09-02T09:05:41;22.10;53.10
37910;DHT22;23741;49.446;8.754;2022-09-02T09:12:09;22.20;52.80
37910;DHT22;23741;49.446;8.754;2022-09-02T09:14:27;22.20;52.90
37910;DHT22;23741;49.446;8.754;2022-09-02T09:16:44;22.30;53.00
37910;DHT22;23741;49.446;8.754;2022-09-02T09:18:59;22.30;53.00
37910;DHT22;23741;49.446;8.754;2022-09-02T09:21:07;22.40;53.50
37910;DHT22;23741;49.446;8.754;2022-09-02T09:25:21;22.50;52.60
37910;DHT22;23741;49.446;8.754;2022-09-02T09:27:30;22.50;52.00
37910;DHT22;23741;49.446;8.754;2022-09-02T09:29:31;22.50;52.10
37910;DHT22;23741;49.446;8.754;2022-09-02T09:31:34;22.60;52.30
37910;DHT22;23741;49.446;8.754;2022-09-02T09:33:36;22.60;52.40
37910;DHT22;23741;49.446;8.754;2022-09-02T09:35:48;22.60;52.60
37910;DHT22;23741;49.446;8.754;2022-09-02T09:37:51;22.70;52.30
37910;DHT22;23741;49.446;8.754;2022-09-02T09:39:53;22.70;52.30
37910;DHT22;23741;49.446;8.754;2022-09-02T09:42:02;22.80;51.90
37910;DHT22;23741;49.446;8.754;2022-09-02T09:44:05;22.80;51.50
37910;DHT22;23741;49.446;8.754;2022-09-02T09:48:28;22.80;51.20
37910;DHT22;23741;49.446;8.754;2022-09-02T09:50:30;22.90;51.80
37910;DHT22;23741;49.446;8.754;2022-09-02T09:52:32;23.00;51.60
37910;DHT22;23741;49.446;8.754;2022-09-02T09:54:33;23.00;51.60
37910;DHT22;23741;49.446;8.754;2022-09-02T09:56:35;23.00;51.50
37910;DHT22;23741;49.446;8.754;2022-09-02T10:00:40;23.10;50.70
37910;DHT22;23741;49.446;8.754;2022-09-02T10:02:49;23.20;50.80
37910;DHT22;23741;49.446;8.754;2022-09-02T10:04:51;23.20;51.20
37910;DHT22;23741;49.446;8.754;2022-09-02T10:06:54;23.20;49.80
37910;DHT22;23741;49.446;8.754;2022-09-02T10:08:56;23.30;50.10
37910;DHT22;23741;49.446;8.754;2022-09-02T10:11:00;23.30;50.80
37910;DHT22;23741;49.446;8.754;2022-09-02T10:15:39;23.50;50.70
37910;DHT22;23741;49.446;8.754;2022-09-02T10:30:11;23.90;50.20
37910;DHT22;23741;49.446;8.754;2022-09-02T10:32:18;24.00;50.40
37910;DHT22;23741;49.446;8.754;2022-09-02T10:38:55;24.20;50.00
37910;DHT22;23741;49.446;8.754;2022-09-02T10:43:05;24.30;51.10
37910;DHT22;23741;49.446;8.754;2022-09-02T10:47:36;24.50;49.30
37910;DHT22;23741;49.446;8.754;2022-09-02T10:51:55;24.60;50.10
37910;DHT22;23741;49.446;8.754;2022-09-02T11:00:39;25.00;49.30
37910;DHT22;23741;49.446;8.754;2022-09-02T11:02:53;25.00;49.60
37910;DHT22;23741;49.446;8.754;2022-09-02T11:05:00;25.20;49.30
37910;DHT22;23741;49.446;8.754;2022-09-02T11:07:05;25.20;49.30
37910;DHT22;23741;49.446;8.754;2022-09-02T11:09:08;25.40;49.30
37910;DHT22;23741;49.446;8.754;2022-09-02T11:11:14;25.40;49.00
37910;DHT22;23741;49.446;8.754;2022-09-02T11:13:29;25.50;49.60
37910;DHT22;23741;49.446;8.754;2022-09-02T11:15:44;25.60;49.00
37910;DHT22;23741;49.446;8.754;2022-09-02T11:17:50;25.70;49.00
37910;DHT22;23741;49.446;8.754;2022-09-02T11:20:17;25.80;48.00
37910;DHT22;23741;49.446;8.754;2022-09-02T11:24:47;26.00;48.60
37910;DHT22;23741;49.446;8.754;2022-09-02T11:26:59;26.10;48.90
37910;DHT22;23741;49.446;8.754;2022-09-02T11:29:22;26.20;48.30
37910;DHT22;23741;49.446;8.754;2022-09-02T11:33:33;26.40;48.10
37910;DHT22;23741;49.446;8.754;2022-09-02T11:35:39;26.50;48.00
37910;DHT22;23741;49.446;8.754;2022-09-02T11:37:50;26.60;48.30
37910;DHT22;23741;49.446;8.754;2022-09-02T11:39:56;26.70;48.00
37910;DHT22;23741;49.446;8.754;2022-09-02T11:55:36;27.40;46.60
37910;DHT22;23741;49.446;8.754;2022-09-02T11:57:39;27.50;47.60
37910;DHT22;23741;49.446;8.754;2022-09-02T12:02:01;27.70;46.30
37910;DHT22;23741;49.446;8.754;2022-09-02T12:06:28;27.90;47.30
37910;DHT22;23741;49.446;8.754;2022-09-02T12:15:00;28.20;46.30
37910;DHT22;23741;49.446;8.754;2022-09-02T12:17:05;28.30;46.10
37910;DHT22;23741;49.446;8.754;2022-09-02T12:25:46;28.60;45.70
37910;DHT22;23741;49.446;8.754;2022-09-02T12:27:48;28.60;46.20
37910;DHT22;23741;49.446;8.754;2022-09-02T12:29:51;28.70;46.10
37910;DHT22;23741;49.446;8.754;2022-09-02T12:31:54;28.80;45.80
37910;DHT22;23741;49.446;8.754;2022-09-02T12:33:56;28.80;45.20
37910;DHT22;23741;49.446;8.754;2022-09-02T12:36:00;28.90;45.30
37910;DHT22;23741;49.446;8.754;2022-09-02T12:40:13;29.00;45.40
37910;DHT22;23741;49.446;8.754;2022-09-02T12:42:26;29.10;45.60
37910;DHT22;23741;49.446;8.754;2022-09-02T12:46:48;29.20;44.50
37910;DHT22;23741;49.446;8.754;2022-09-02T12:48:57;29.20;43.40
37910;DHT22;23741;49.446;8.754;2022-09-02T12:51:00;29.30;44.40
37910;DHT22;23741;49.446;8.754;2022-09-02T12:53:06;29.40;44.30
37910;DHT22;23741;49.446;8.754;2022-09-02T12:57:10;29.50;43.40
37910;DHT22;23741;49.446;8.754;2022-09-02T12:59:18;29.50;43.80
37910;DHT22;23741;49.446;8.754;2022-09-02T13:01:45;29.60;43.20
37910;DHT22;23741;49.446;8.754;2022-09-02T13:08:30;29.80;43.90
37910;DHT22;23741;49.446;8.754;2022-09-02T13:28:54;30.20;42.90
37910;DHT22;23741;49.446;8.754;2022-09-02T13:33:05;30.30;43.20
37910;DHT22;23741;49.446;8.754;2022-09-02T13:35:08;30.40;43.40
37910;DHT22;23741;49.446;8.754;2022-09-02T13:37:31;30.40;42.60
37910;DHT22;23741;49.446;8.754;2022-09-02T13:39:33;30.40;43.30
37910;DHT22;23741;49.446;8.754;2022-09-02T13:41:38;30.50;43.00
37910;DHT22;23741;49.446;8.754;2022-09-02T13:43:40;30.50;42.60
37910;DHT22;23741;49.446;8.754;2022-09-02T13:45:42;30.50;42.60
37910;DHT22;23741;49.446;8.754;2022-09-02T13:47:45;30.50;41.90
37910;DHT22;23741;49.446;8.754;2022-09-02T13:49:48;30.60;42.00
37910;DHT22;23741;49.446;8.754;2022-09-02T13:51:51;30.70;42.20
37910;DHT22;23741;49.446;8.754;2022-09-02T13:53:53;30.70;42.80
37910;DHT22;23741;49.446;8.754;2022-09-02T13:56:22;30.70;40.50
37910;DHT22;23741;49.446;8.754;2022-09-02T14:00:31;30.90;42.70
37910;DHT22;23741;49.446;8.754;2022-09-02T14:02:34;30.90;40.50
37910;DHT22;23741;49.446;8.754;2022-09-02T14:04:37;30.90;41.50
37910;DHT22;23741;49.446;8.754;2022-09-02T14:06:40;30.90;41.80
37910;DHT22;23741;49.446;8.754;2022-09-02T14:08:43;30.90;41.80
37910;DHT22;23741;49.446;8.754;2022-09-02T14:10:46;31.00;41.50
37910;DHT22;23741;49.446;8.754;2022-09-02T14:12:49;31.00;41.70
37910;DHT22;23741;49.446;8.754;2022-09-02T14:14:51;31.00;40.70
37910;DHT22;23741;49.446;8.754;2022-09-02T14:17:15;31.10;41.10
37910;DHT22;23741;49.446;8.754;2022-09-02T14:21:17;31.10;41.10
37910;DHT22;23741;49.446;8.754;2022-09-02T14:23:30;31.10;41.20
37910;DHT22;23741;49.446;8.754;2022-09-02T14:25:35;31.20;40.80
37910;DHT22;23741;49.446;8.754;2022-09-02T14:27:37;31.20;41.40
37910;DHT22;23741;49.446;8.754;2022-09-02T14:29:42;31.20;40.90
37910;DHT22;23741;49.446;8.754;2022-09-02T14:31:44;31.30;41.00
37910;DHT22;23741;49.446;8.754;2022-09-02T14:33:46;31.30;41.30
37910;DHT22;23741;49.446;8.754;2022-09-02T14:37:56;31.40;40.80
37910;DHT22;23741;49.446;8.754;2022-09-02T14:40:08;31.40;40.20
37910;DHT22;23741;49.446;8.754;2022-09-02T14:42:13;31.50;39.40
37910;DHT22;23741;49.446;8.754;2022-09-02T14:44:26;31.50;39.40
37910;DHT22;23741;49.446;8.754;2022-09-02T14:46:37;31.50;39.70
37910;DHT22;23741;49.446;8.754;2022-09-02T14:48:39;31.60;39.90
37910;DHT22;23741;49.446;8.754;2022-09-02T14:50:41;31.70;39.80
37910;DHT22;23741;49.446;8.754;2022-09-02T14:52:44;31.70;39.70
37910;DHT22;23741;49.446;8.754;2022-09-02T14:54:48;31.70;40.20
37910;DHT22;23741;49.446;8.754;2022-09-02T14:56:50;31.80;40.60
37910;DHT22;23741;49.446;8.754;2022-09-02T14:58:52;31.80;40.40
37910;DHT22;23741;49.446;8.754;2022-09-02T15:00:55;31.80;39.80
37910;DHT22;23741;49.446;8.754;2022-09-02T15:02:58;31.80;39.90
37910;DHT22;23741;49.446;8.754;2022-09-02T15:05:04;31.90;39.60
37910;DHT22;23741;49.446;8.754;2022-09-02T15:07:07;31.90;39.50
37910;DHT22;23741;49.446;8.754;2022-09-02T15:09:09;31.90;38.70
37910;DHT22;23741;49.446;8.754;2022-09-02T15:11:11;31.90;37.90
37910;DHT22;23741;49.446;8.754;2022-09-02T15:13:25;31.90;37.80
37910;DHT22;23741;49.446;8.754;2022-09-02T15:15:27;32.00;38.80